Time;durP1;ratioP1;P1;durP2;ratioP2;P2;SDS_P1;SDS_P2;PMS_P1;PMS_P2;Temp;Humidity;BMP_temperature;BMP_pressure;BME280_temperature;BME280_humidity;BME280_pressure;Samples;Min_cycle;Max_cycle;Signal;HPM_P1;HPM_P2
2021/03/09 00:01:25;;;;;;;1.87;1.07;;;;;;;;;;5034600;28;20056;-76
2021/03/09 00:03:50;;;;;;;2.57;1.27;;;;;;;;;;4985795;28;20172;-76
2021/03/09 00:06:16;;;;;;;2.40;1.10;;;;;;;;;;5007953;28;20045;-76
2021/03/09 00:08:41;;;;;;;1.93;1.00;;;;;;;;;;5001546;28;20108;-76
2021/03/09 00:11:06;;;;;;;2.17;1.07;;;;;;;;;;5001646;28;20034;-76
2021/03/09 00:13:32;;;;;;;2.53;1.10;;;;;;;;;;5001841;28;20438;-76
2021/03/09 00:15:57;;;;;;;1.50;0.90;;;;;;;;;;5017862;28;20042;-76
2021/03/09 00:18:22;;;;;;;2.07;1.07;;;;;;;;;;5021344;28;20040;-76
2021/03/09 00:20:48;;;;;;;2.17;1.10;;;;;;;;;;5021940;28;20041;-76
2021/03/09 00:23:13;;;;;;;2.03;1.07;;;;;;;;;;5006606;28;20093;-77
2021/03/09 00:25:39;;;;;;;1.50;1.10;;;;;;;;;;5010476;28;20030;-76
2021/03/09 00:28:04;;;;;;;2.03;1.00;;;;;;;;;;4990305;28;20382;-77
2021/03/09 00:30:30;;;;;;;2.23;1.07;;;;;;;;;;5005847;28;20030;-76
2021/03/09 00:32:55;;;;;;;2.30;1.00;;;;;;;;;;5017067;28;20465;-76
2021/03/09 00:35:20;;;;;;;2.93;1.20;;;;;;;;;;5022655;28;20037;-76
2021/03/09 00:37:46;;;;;;;1.60;1.07;;;;;;;;;;5006182;28;20037;-76
2021/03/09 00:40:11;;;;;;;2.67;1.23;;;;;;;;;;5019961;28;20041;-76
2021/03/09 00:42:37;;;;;;;2.30;1.20;;;;;;;;;;5003490;28;20026;-77
2021/03/09 00:45:03;;;;;;;2.23;1.13;;;;;;;;;;5019979;28;20089;-76
2021/03/09 00:47:28;;;;;;;2.57;1.40;;;;;;;;;;4987785;28;20124;-76
2021/03/09 00:49:54;;;;;;;2.73;1.10;;;;;;;;;;5002888;28;20109;-76
2021/03/09 00:52:20;;;;;;;2.00;1.00;;;;;;;;;;5003434;28;20061;-76
2021/03/09 00:54:45;;;;;;;1.87;1.20;;;;;;;;;;5005311;28;20520;-76
2021/03/09 00:57:11;;;;;;;2.60;1.13;;;;;;;;;;5011154;28;20049;-76
2021/03/09 00:59:36;;;;;;;1.93;1.10;;;;;;;;;;5007948;28;20057;-76
2021/03/09 01:02:01;;;;;;;2.67;1.00;;;;;;;;;;5024564;28;20429;-76
2021/03/09 01:04:27;;;;;;;2.17;1.30;;;;;;;;;;5024120;28;20045;-76
2021/03/09 01:06:52;;;;;;;3.00;1.23;;;;;;;;;;5006756;28;20080;-76
2021/03/09 01:09:17;;;;;;;3.10;1.17;;;;;;;;;;5024221;28;20034;-76
2021/03/09 01:11:43;;;;;;;2.37;1.10;;;;;;;;;;5025490;28;20069;-76
2021/03/09 01:14:08;;;;;;;2.23;1.27;;;;;;;;;;5028069;28;20118;-76
2021/03/09 01:16:33;;;;;;;2.33;1.10;;;;;;;;;;5027979;28;20057;-76
2021/03/09 01:18:59;;;;;;;1.70;1.03;;;;;;;;;;5028114;28;20404;-76
2021/03/09 01:21:24;;;;;;;1.97;0.80;;;;;;;;;;5025906;28;20188;-76
2021/03/09 01:23:49;;;;;;;1.83;0.90;;;;;;;;;;5027211;28;20065;-76
2021/03/09 01:26:15;;;;;;;2.20;1.10;;;;;;;;;;5043120;28;20073;-77
2021/03/09 01:28:40;;;;;;;1.97;1.10;;;;;;;;;;5026701;28;20081;-76
2021/03/09 01:31:05;;;;;;;1.90;1.03;;;;;;;;;;5026934;28;20081;-76
2021/03/09 01:33:31;;;;;;;2.50;1.20;;;;;;;;;;5024987;28;20056;-76
2021/03/09 01:35:56;;;;;;;2.30;1.20;;;;;;;;;;5026139;28;20069;-77
2021/03/09 01:38:21;;;;;;;2.70;1.33;;;;;;;;;;5026137;28;20098;-76
2021/03/09 01:40:47;;;;;;;2.00;1.20;;;;;;;;;;5025721;28;20072;-76
2021/03/09 01:43:12;;;;;;;2.00;1.10;;;;;;;;;;5025922;28;20040;-76
2021/03/09 01:45:38;;;;;;;2.00;1.10;;;;;;;;;;5040534;28;20049;-76
2021/03/09 01:48:04;;;;;;;1.90;1.07;;;;;;;;;;5025276;28;20040;-76
2021/03/09 01:50:30;;;;;;;1.98;0.90;;;;;;;;;;5027030;28;20030;-76
2021/03/09 01:52:55;;;;;;;1.83;1.00;;;;;;;;;;5015325;28;20041;-76
2021/03/09 01:55:20;;;;;;;1.43;1.00;;;;;;;;;;5007795;28;20034;-76
2021/03/09 01:57:46;;;;;;;2.13;1.00;;;;;;;;;;5025130;28;20037;-76
2021/03/09 02:00:12;;;;;;;2.70;1.00;;;;;;;;;;5026513;28;20038;-76
2021/03/09 02:02:37;;;;;;;1.80;1.00;;;;;;;;;;5024409;28;20037;-76
2021/03/09 02:05:05;;;;;;;2.03;1.20;;;;;;;;;;5026114;28;20045;-76
2021/03/09 02:07:30;;;;;;;2.05;1.23;;;;;;;;;;5009298;28;20045;-76
2021/03/09 02:09:55;;;;;;;2.57;1.33;;;;;;;;;;5009871;28;20073;-76
2021/03/09 02:12:42;;;;;;;2.37;1.20;;;;;;;;;;5009070;28;20052;-76
2021/03/09 02:15:13;;;;;;;2.08;1.05;;;;;;;;;;5025234;28;20074;-76
2021/03/09 02:17:50;;;;;;;2.75;1.10;;;;;;;;;;5007566;28;20026;-76
2021/03/09 02:20:53;;;;;;;1.75;1.00;;;;;;;;;;5022714;28;20116;-76
2021/03/09 02:23:50;;;;;;;2.63;0.90;;;;;;;;;;5040170;28;20030;-76
2021/03/09 02:26:24;;;;;;;3.17;1.10;;;;;;;;;;5026280;28;20046;-76
2021/03/09 02:29:08;;;;;;;2.22;1.20;;;;;;;;;;5025095;28;20030;-76
2021/03/09 02:31:33;;;;;;;2.35;1.10;;;;;;;;;;5005276;28;20039;-76
2021/03/09 02:34:07;;;;;;;1.70;0.97;;;;;;;;;;5023863;28;20036;-76
2021/03/09 02:36:32;;;;;;;2.13;1.10;;;;;;;;;;5007466;28;20113;-76
2021/03/09 02:39:05;;;;;;;2.20;1.13;;;;;;;;;;5025111;28;20057;-76
2021/03/09 02:41:31;;;;;;;2.40;1.15;;;;;;;;;;5005930;28;20046;-76
2021/03/09 02:43:57;;;;;;;2.10;1.10;;;;;;;;;;5021017;28;20030;-76
2021/03/09 02:46:23;;;;;;;2.60;1.00;;;;;;;;;;5039107;28;20494;-76
2021/03/09 02:48:49;;;;;;;2.47;1.13;;;;;;;;;;5024433;28;20034;-76
2021/03/09 02:51:14;;;;;;;2.17;1.20;;;;;;;;;;5023154;28;20073;-76
2021/03/09 02:53:53;;;;;;;2.13;1.17;;;;;;;;;;5026090;28;20057;-76
2021/03/09 02:56:18;;;;;;;1.98;1.10;;;;;;;;;;5023608;28;20040;-76
2021/03/09 02:58:44;;;;;;;1.83;1.20;;;;;;;;;;5024720;28;20082;-76
2021/03/09 03:01:10;;;;;;;2.50;1.20;;;;;;;;;;5039709;28;20056;-76
2021/03/09 03:03:35;;;;;;;1.83;1.20;;;;;;;;;;5024339;28;20037;-76
2021/03/09 03:06:00;;;;;;;2.23;1.10;;;;;;;;;;5024046;28;20476;-76
2021/03/09 03:08:26;;;;;;;2.07;1.10;;;;;;;;;;5022237;28;20062;-76
2021/03/09 03:10:51;;;;;;;2.07;1.00;;;;;;;;;;5021511;28;20479;-76
2021/03/09 03:13:16;;;;;;;1.87;1.10;;;;;;;;;;5014939;28;20080;-77
2021/03/09 03:15:42;;;;;;;2.00;1.00;;;;;;;;;;4997616;28;20531;-76
2021/03/09 03:18:14;;;;;;;1.57;0.97;;;;;;;;;;5003555;28;20519;-76
2021/03/09 03:20:41;;;;;;;1.95;1.02;;;;;;;;;;5014468;28;20493;-77
2021/03/09 03:23:07;;;;;;;2.15;1.15;;;;;;;;;;5013650;28;20448;-77
2021/03/09 03:25:32;;;;;;;1.93;0.93;;;;;;;;;;5013704;28;20042;-77
2021/03/09 03:27:57;;;;;;;2.43;1.13;;;;;;;;;;4997349;28;20065;-76
2021/03/09 03:30:23;;;;;;;1.50;1.00;;;;;;;;;;5013227;28;20034;-76
2021/03/09 03:32:49;;;;;;;2.17;1.10;;;;;;;;;;5013558;28;20110;-76
2021/03/09 03:35:14;;;;;;;2.53;1.30;;;;;;;;;;5007489;28;20030;-76
2021/03/09 03:37:40;;;;;;;2.33;1.00;;;;;;;;;;4997134;28;20042;-76
2021/03/09 03:40:08;;;;;;;2.33;1.00;;;;;;;;;;5013268;28;20037;-76
2021/03/09 03:42:34;;;;;;;2.20;1.10;;;;;;;;;;5013218;28;20396;-76
2021/03/09 03:44:59;;;;;;;2.27;1.17;;;;;;;;;;5009746;28;20033;-76
2021/03/09 03:47:25;;;;;;;2.07;1.10;;;;;;;;;;4997024;28;20076;-76
2021/03/09 03:49:50;;;;;;;1.90;1.00;;;;;;;;;;5003487;28;20041;-76
2021/03/09 03:52:23;;;;;;;1.60;1.10;;;;;;;;;;5013378;28;20061;-76
2021/03/09 03:55:11;;;;;;;2.25;1.20;;;;;;;;;;5013127;28;20445;-76
2021/03/09 03:57:37;;;;;;;;;;;;;;;;;;4957129;28;20046;-76
2021/03/09 04:00:03;;;;;;;2.45;1.10;;;;;;;;;;5021309;28;19917;-76
2021/03/09 04:02:29;;;;;;;1.88;1.08;;;;;;;;;;5012875;28;20515;-76
2021/03/09 04:04:54;;;;;;;1.70;1.05;;;;;;;;;;4996468;28;20042;-76
2021/03/09 04:07:25;;;;;;;2.60;1.20;;;;;;;;;;4996536;28;20416;-76
2021/03/09 04:09:51;;;;;;;1.85;1.05;;;;;;;;;;5002654;28;20040;-76
2021/03/09 04:12:17;;;;;;;1.92;1.10;;;;;;;;;;5012743;28;20081;-77
2021/03/09 04:14:43;;;;;;;1.80;1.00;;;;;;;;;;4996459;28;20034;-76
2021/03/09 04:17:08;;;;;;;2.17;1.30;;;;;;;;;;4996360;28;20069;-77
2021/03/09 04:19:33;;;;;;;3.07;1.40;;;;;;;;;;5000680;28;20030;-76
2021/03/09 04:21:59;;;;;;;2.93;1.30;;;;;;;;;;5012261;28;20076;-77
2021/03/09 04:24:25;;;;;;;2.50;1.10;;;;;;;;;;5012746;28;20556;-76
2021/03/09 04:26:50;;;;;;;1.65;1.05;;;;;;;;;;4996333;28;20038;-76
2021/03/09 04:29:15;;;;;;;2.07;1.30;;;;;;;;;;4991012;28;20037;-77
2021/03/09 04:31:41;;;;;;;2.13;1.10;;;;;;;;;;5012426;28;20117;-76
2021/03/09 04:34:06;;;;;;;1.97;1.10;;;;;;;;;;5012402;28;20068;-76
2021/03/09 04:36:32;;;;;;;1.83;1.03;;;;;;;;;;5013805;28;20120;-77
2021/03/09 04:38:57;;;;;;;2.57;1.20;;;;;;;;;;5004572;28;20041;-76
2021/03/09 04:41:22;;;;;;;2.10;1.20;;;;;;;;;;4996261;28;20061;-76
2021/03/09 04:43:48;;;;;;;2.70;1.30;;;;;;;;;;4996031;28;20053;-76
2021/03/09 04:46:13;;;;;;;2.23;1.00;;;;;;;;;;4995145;28;20515;-76
2021/03/09 04:48:39;;;;;;;2.33;1.27;;;;;;;;;;5012342;28;20030;-76
2021/03/09 04:51:10;;;;;;;2.53;1.30;;;;;;;;;;5028400;28;20065;-76
2021/03/09 04:53:35;;;;;;;2.80;1.17;;;;;;;;;;4995929;28;20103;-76
2021/03/09 04:56:01;;;;;;;2.37;1.30;;;;;;;;;;4995884;28;20489;-76
2021/03/09 04:58:26;;;;;;;2.43;1.10;;;;;;;;;;5002810;28;20041;-77
2021/03/09 05:00:52;;;;;;;2.10;1.10;;;;;;;;;;5009045;28;20277;-77
2021/03/09 05:03:18;;;;;;;2.47;1.33;;;;;;;;;;4995800;28;20034;-76
2021/03/09 05:05:43;;;;;;;2.20;1.10;;;;;;;;;;5012296;28;20485;-76
2021/03/09 05:08:08;;;;;;;2.07;1.20;;;;;;;;;;4979305;28;20128;-77
2021/03/09 05:10:34;;;;;;;2.20;1.00;;;;;;;;;;5006700;28;20081;-76
2021/03/09 05:15:27;;;;;;;3.08;1.30;;;;;;;;;;4991976;28;20457;-75
2021/03/09 05:17:52;;;;;;;2.43;1.30;;;;;;;;;;4999099;28;20034;-76
2021/03/09 05:20:17;;;;;;;3.20;1.23;;;;;;;;;;4988261;28;20034;-75
2021/03/09 05:22:43;;;;;;;2.23;1.20;;;;;;;;;;5003903;28;20069;-75
2021/03/09 05:25:10;;;;;;;1.83;1.10;;;;;;;;;;5023109;28;20065;-75
2021/03/09 05:27:35;;;;;;;2.10;1.10;;;;;;;;;;4995422;28;20400;-75
2021/03/09 05:30:01;;;;;;;2.23;1.23;;;;;;;;;;5011786;28;20040;-75
2021/03/09 05:32:26;;;;;;;2.37;1.20;;;;;;;;;;5004103;28;20445;-75
2021/03/09 05:34:52;;;;;;;2.50;1.13;;;;;;;;;;5006014;28;20488;-75
2021/03/09 05:37:17;;;;;;;2.50;1.30;;;;;;;;;;5015043;28;20057;-75
2021/03/09 05:39:43;;;;;;;2.23;1.13;;;;;;;;;;5015694;28;20069;-75
2021/03/09 05:42:08;;;;;;;1.80;1.20;;;;;;;;;;5011542;28;20121;-75
2021/03/09 05:44:34;;;;;;;2.23;1.20;;;;;;;;;;5019499;28;20507;-75
2021/03/09 05:47:01;;;;;;;2.60;1.30;;;;;;;;;;5003699;28;20034;-75
2021/03/09 05:49:26;;;;;;;2.55;1.23;;;;;;;;;;4991922;28;20480;-75
2021/03/09 05:51:52;;;;;;;3.03;1.30;;;;;;;;;;4991500;28;20162;-75
2021/03/09 05:54:17;;;;;;;2.97;1.30;;;;;;;;;;5002791;28;20084;-75
2021/03/09 05:56:43;;;;;;;2.07;1.27;;;;;;;;;;5015480;28;20419;-75
2021/03/09 05:59:08;;;;;;;2.03;1.10;;;;;;;;;;5018252;28;20031;-75
2021/03/09 06:01:33;;;;;;;1.87;1.10;;;;;;;;;;5005222;28;20129;-75
2021/03/09 06:03:59;;;;;;;1.70;1.10;;;;;;;;;;5017182;28;20592;-75
2021/03/09 06:06:24;;;;;;;2.30;1.13;;;;;;;;;;5018558;28;20033;-75
2021/03/09 06:08:49;;;;;;;2.40;1.30;;;;;;;;;;5028355;28;20048;-75
2021/03/09 06:11:16;;;;;;;2.53;1.20;;;;;;;;;;5031399;28;20456;-75
2021/03/09 06:13:41;;;;;;;2.80;1.20;;;;;;;;;;4998495;28;20030;-75
2021/03/09 06:16:06;;;;;;;2.10;1.20;;;;;;;;;;5034037;28;20029;-75
2021/03/09 06:18:32;;;;;;;2.73;1.40;;;;;;;;;;5003529;28;20184;-75
2021/03/09 06:21:27;;;;;;;2.20;1.23;;;;;;;;;;5014796;28;20480;-75
2021/03/09 06:23:52;;;;;;;2.10;1.20;;;;;;;;;;5002357;28;20069;-75
2021/03/09 06:26:39;;;;;;;2.90;1.40;;;;;;;;;;5030290;28;20051;-75
2021/03/09 06:29:25;;;;;;;3.13;1.48;;;;;;;;;;5034596;28;20041;-75
2021/03/09 06:31:56;;;;;;;2.45;1.30;;;;;;;;;;5014039;28;20041;-75
2021/03/09 06:34:32;;;;;;;1.98;1.20;;;;;;;;;;5015488;28;20515;-75
2021/03/09 06:37:04;;;;;;;2.65;1.17;;;;;;;;;;4998243;28;20061;-76
2021/03/09 06:39:49;;;;;;;2.25;1.35;;;;;;;;;;5027640;28;20077;-75
2021/03/09 06:42:16;;;;;;;2.25;1.30;;;;;;;;;;5017542;28;20176;-75
2021/03/09 06:44:41;;;;;;;1.67;1.13;;;;;;;;;;5021518;28;20408;-75
2021/03/09 06:47:07;;;;;;;2.90;1.23;;;;;;;;;;5031146;28;20044;-75
2021/03/09 06:49:53;;;;;;;2.35;1.33;;;;;;;;;;5001539;28;20500;-75
2021/03/09 06:52:19;;;;;;;2.28;1.30;;;;;;;;;;5033644;28;20034;-75
2021/03/09 06:54:49;;;;;;;2.65;1.33;;;;;;;;;;5019317;28;20026;-75
2021/03/09 06:57:14;;;;;;;2.88;1.50;;;;;;;;;;4981550;28;20033;-75
2021/03/09 06:59:44;;;;;;;2.90;1.50;;;;;;;;;;5014407;28;20404;-75
2021/03/09 07:02:13;;;;;;;2.53;1.38;;;;;;;;;;4981496;28;20030;-75
2021/03/09 07:04:39;;;;;;;2.67;1.40;;;;;;;;;;5010353;28;20034;-75
2021/03/09 07:07:05;;;;;;;2.78;1.40;;;;;;;;;;5031096;28;20053;-74
2021/03/09 07:09:31;;;;;;;3.35;1.38;;;;;;;;;;5018288;28;20034;-75
2021/03/09 07:11:58;;;;;;;2.40;1.10;;;;;;;;;;4994538;28;20062;-75
2021/03/09 07:14:23;;;;;;;2.72;1.35;;;;;;;;;;5010270;28;20040;-75
2021/03/09 07:16:49;;;;;;;2.73;1.50;;;;;;;;;;5000715;28;20041;-75
2021/03/09 07:19:25;;;;;;;4.18;1.48;;;;;;;;;;5017107;28;20107;-75
2021/03/09 07:21:51;;;;;;;2.90;1.30;;;;;;;;;;5016848;28;20507;-75
2021/03/09 07:24:19;;;;;;;3.53;1.50;;;;;;;;;;5017115;28;20041;-75
2021/03/09 07:26:44;;;;;;;2.80;1.52;;;;;;;;;;5013444;28;20389;-75
2021/03/09 07:29:10;;;;;;;3.27;1.60;;;;;;;;;;4997331;28;20026;-75
2021/03/09 07:31:35;;;;;;;2.33;1.30;;;;;;;;;;4980809;28;20037;-75
2021/03/09 07:34:00;;;;;;;2.60;1.50;;;;;;;;;;4997368;28;20065;-75
2021/03/09 07:36:26;;;;;;;2.20;1.37;;;;;;;;;;5013501;28;20081;-75
2021/03/09 07:38:51;;;;;;;2.33;1.13;;;;;;;;;;4997124;28;20084;-75
2021/03/09 07:41:17;;;;;;;2.60;1.40;;;;;;;;;;4996977;28;20122;-75
2021/03/09 07:43:42;;;;;;;2.57;1.33;;;;;;;;;;4997103;28;20117;-75
2021/03/09 07:46:08;;;;;;;2.87;1.50;;;;;;;;;;4980786;28;20034;-75
2021/03/09 07:48:34;;;;;;;2.58;1.35;;;;;;;;;;4996542;28;20485;-75
2021/03/09 07:51:04;;;;;;;3.43;1.50;;;;;;;;;;5013092;28;20038;-75
2021/03/09 07:53:29;;;;;;;2.55;1.30;;;;;;;;;;5012967;28;20494;-75
2021/03/09 07:56:03;;;;;;;2.77;1.30;;;;;;;;;;5014668;28;20044;-75
2021/03/09 07:58:29;;;;;;;3.15;1.70;;;;;;;;;;5014187;28;20501;-75
2021/03/09 08:00:58;;;;;;;3.30;1.60;;;;;;;;;;5012834;28;20033;-75
2021/03/09 08:03:27;;;;;;;2.47;1.40;;;;;;;;;;5032541;28;20083;-75
2021/03/09 08:05:53;;;;;;;3.17;1.70;;;;;;;;;;5032840;28;20480;-75
2021/03/09 08:08:47;;;;;;;3.22;1.60;;;;;;;;;;5032708;28;20051;-75
2021/03/09 08:11:19;;;;;;;2.53;1.45;;;;;;;;;;5018564;28;20040;-75
2021/03/09 08:13:47;;;;;;;3.28;1.80;;;;;;;;;;5012527;28;20038;-75
2021/03/09 08:16:19;;;;;;;2.85;1.60;;;;;;;;;;4996683;28;20038;-75
2021/03/09 08:18:44;;;;;;;3.25;1.83;;;;;;;;;;5013805;28;20034;-75
2021/03/09 08:21:10;;;;;;;3.47;1.43;;;;;;;;;;4996412;28;20064;-75
2021/03/09 08:23:41;;;;;;;2.87;1.50;;;;;;;;;;4979952;28;20030;-75
2021/03/09 08:26:21;;;;;;;3.72;1.40;;;;;;;;;;5012633;28;20037;-75
2021/03/09 08:28:47;;;;;;;2.88;1.50;;;;;;;;;;5014009;28;20037;-75
2021/03/09 08:31:12;;;;;;;3.07;1.70;;;;;;;;;;4996272;28;20033;-75
2021/03/09 08:33:44;;;;;;;2.57;1.37;;;;;;;;;;5013648;28;20463;-75
2021/03/09 08:36:26;;;;;;;2.58;1.38;;;;;;;;;;5012673;28;20030;-75
2021/03/09 08:39:01;;;;;;;3.03;1.50;;;;;;;;;;5013676;28;20032;-75
2021/03/09 08:41:46;;;;;;;2.97;1.50;;;;;;;;;;5013417;28;20033;-75
2021/03/09 08:44:18;;;;;;;2.70;1.50;;;;;;;;;;4999925;28;20054;-75
2021/03/09 08:47:03;;;;;;;2.83;1.42;;;;;;;;;;5013424;28;20037;-75
2021/03/09 08:49:39;;;;;;;3.88;1.73;;;;;;;;;;5012154;28;20030;-75
2021/03/09 08:52:12;;;;;;;2.70;1.42;;;;;;;;;;5013369;28;20040;-75
2021/03/09 08:54:52;;;;;;;3.25;1.40;;;;;;;;;;4996822;28;20079;-75
2021/03/09 08:57:17;;;;;;;3.15;1.55;;;;;;;;;;4980073;28;20034;-75
2021/03/09 08:59:44;;;;;;;4.03;2.07;;;;;;;;;;5013308;28;20506;-75
2021/03/09 09:02:10;;;;;;;;;;;;;;;;;;4983200;28;20048;-75
2021/03/09 09:04:36;;;;;;;3.08;1.52;;;;;;;;;;5032979;28;20276;-75
2021/03/09 09:07:40;;;;;;;3.10;1.50;;;;;;;;;;5015590;28;20041;-75
2021/03/09 09:10:14;;;;;;;3.25;1.40;;;;;;;;;;4955918;28;20043;-75
2021/03/09 09:12:41;;;;;;;3.20;1.77;;;;;;;;;;5025520;28;20037;-75
2021/03/09 09:15:18;;;;;;;4.07;1.70;;;;;;;;;;4998835;28;20037;-75
2021/03/09 09:17:51;;;;;;;3.40;1.67;;;;;;;;;;5015340;28;20123;-75
2021/03/09 09:20:22;;;;;;;3.90;1.60;;;;;;;;;;5015327;28;20512;-75
2021/03/09 09:22:47;;;;;;;2.90;1.60;;;;;;;;;;5015356;28;20041;-75
2021/03/09 09:25:14;;;;;;;3.00;1.67;;;;;;;;;;5015514;28;20391;-75
2021/03/09 09:27:39;;;;;;;3.55;1.60;;;;;;;;;;5015187;28;20037;-75
2021/03/09 09:30:06;;;;;;;3.13;1.60;;;;;;;;;;5014926;28;20041;-75
2021/03/09 09:32:51;;;;;;;3.42;1.70;;;;;;;;;;5022400;28;20037;-75
2021/03/09 09:35:17;;;;;;;3.00;1.67;;;;;;;;;;5032292;28;20087;-75
2021/03/09 09:37:46;;;;;;;2.90;1.60;;;;;;;;;;5015838;28;20029;-75
2021/03/09 09:40:13;;;;;;;2.97;1.63;;;;;;;;;;5045237;28;20048;-75
2021/03/09 09:42:38;;;;;;;;;;;;;;;;;;5019171;28;20038;-75
2021/03/09 09:45:04;;;;;;;3.10;1.50;;;;;;;;;;5017070;28;19913;-75
2021/03/09 09:47:30;;;;;;;2.80;1.50;;;;;;;;;;4999251;28;20511;-74
2021/03/09 09:49:55;;;;;;;2.70;1.67;;;;;;;;;;5018972;28;20041;-75
2021/03/09 09:52:20;;;;;;;3.13;1.80;;;;;;;;;;5005507;28;20026;-75
2021/03/09 09:54:55;;;;;;;3.83;1.80;;;;;;;;;;5035158;28;20037;-75
2021/03/09 09:57:22;;;;;;;3.33;1.70;;;;;;;;;;5018423;28;20033;-75
2021/03/09 09:59:47;;;;;;;3.65;1.52;;;;;;;;;;5034984;28;20045;-75
2021/03/09 10:02:23;;;;;;;2.97;1.43;;;;;;;;;;5007502;28;20396;-75
2021/03/09 10:04:49;;;;;;;3.30;1.90;;;;;;;;;;5033602;28;20037;-75
2021/03/09 10:07:18;;;;;;;4.77;1.77;;;;;;;;;;5008766;28;20033;-75
2021/03/09 10:10:00;;;;;;;3.10;1.60;;;;;;;;;;5014962;28;20097;-75
2021/03/09 10:12:33;;;;;;;2.92;1.65;;;;;;;;;;5032761;28;20034;-75
2021/03/09 10:14:58;;;;;;;3.95;1.80;;;;;;;;;;5014868;28;20044;-75
2021/03/09 10:17:23;;;;;;;2.57;1.67;;;;;;;;;;5027559;28;20120;-75
2021/03/09 10:19:49;;;;;;;3.40;1.57;;;;;;;;;;5018483;28;20116;-75
2021/03/09 10:22:22;;;;;;;3.43;1.40;;;;;;;;;;5004750;28;20042;-75
2021/03/09 10:24:47;;;;;;;2.53;1.45;;;;;;;;;;5005235;28;20037;-75
2021/03/09 10:27:16;;;;;;;3.43;1.67;;;;;;;;;;5014917;28;20036;-75
2021/03/09 10:29:42;;;;;;;2.83;1.77;;;;;;;;;;5031183;28;20493;-75
2021/03/09 10:32:13;;;;;;;3.10;1.70;;;;;;;;;;5013619;28;20180;-75
2021/03/09 10:34:42;;;;;;;3.78;1.88;;;;;;;;;;5001782;28;20420;-75
2021/03/09 10:37:12;;;;;;;3.40;1.63;;;;;;;;;;5018302;28;20033;-75
2021/03/09 10:39:54;;;;;;;2.90;1.40;;;;;;;;;;4985355;28;20040;-75
2021/03/09 10:42:33;;;;;;;3.30;1.80;;;;;;;;;;5021392;28;20113;-75
2021/03/09 10:45:19;;;;;;;2.75;1.73;;;;;;;;;;5047412;28;20037;-75
2021/03/09 10:47:59;;;;;;;2.97;1.60;;;;;;;;;;5002717;28;20108;-75
2021/03/09 10:50:26;;;;;;;2.78;1.60;;;;;;;;;;5019837;28;20025;-74
2021/03/09 10:52:52;;;;;;;2.85;1.52;;;;;;;;;;5021460;28;20030;-75
2021/03/09 10:55:17;;;;;;;3.17;1.60;;;;;;;;;;5002702;28;20088;-75
2021/03/09 10:57:42;;;;;;;3.30;1.60;;;;;;;;;;5014662;28;20047;-76
2021/03/09 11:00:13;;;;;;;2.93;1.60;;;;;;;;;;5004311;28;20038;-75
2021/03/09 11:02:38;;;;;;;3.28;1.70;;;;;;;;;;5021209;28;20108;-75
2021/03/09 11:05:05;;;;;;;3.47;1.87;;;;;;;;;;5017370;28;20085;-75
2021/03/09 11:07:30;;;;;;;3.35;1.63;;;;;;;;;;5006823;28;20085;-75
2021/03/09 11:09:55;;;;;;;3.57;1.70;;;;;;;;;;5030755;28;20116;-75
2021/03/09 11:12:21;;;;;;;3.47;1.70;;;;;;;;;;5004432;28;20030;-75
2021/03/09 11:14:46;;;;;;;2.90;1.40;;;;;;;;;;5035744;22;20480;-76
2021/03/09 11:17:11;;;;;;;2.93;1.60;;;;;;;;;;5023517;28;20036;-76
2021/03/09 11:19:37;;;;;;;2.80;1.50;;;;;;;;;;5039345;28;20119;-76
2021/03/09 11:22:02;;;;;;;3.07;1.70;;;;;;;;;;5019792;28;20049;-77
2021/03/09 11:24:28;;;;;;;2.67;1.60;;;;;;;;;;5036327;28;20032;-77
2021/03/09 11:26:58;;;;;;;3.00;1.50;;;;;;;;;;5019802;28;20036;-76
2021/03/09 11:29:25;;;;;;;2.78;1.52;;;;;;;;;;5021236;28;20036;-76
2021/03/09 11:31:50;;;;;;;4.32;1.55;;;;;;;;;;5019787;28;20032;-76
2021/03/09 11:34:15;;;;;;;3.13;1.53;;;;;;;;;;5019634;28;20091;-76
2021/03/09 11:36:41;;;;;;;3.23;1.80;;;;;;;;;;5036709;28;20040;-76
2021/03/09 11:39:06;;;;;;;2.67;1.43;;;;;;;;;;5036155;28;20122;-76
2021/03/09 11:41:31;;;;;;;2.50;1.50;;;;;;;;;;5019907;28;20075;-76
2021/03/09 11:43:57;;;;;;;4.00;1.60;;;;;;;;;;5003206;28;20041;-76
2021/03/09 11:46:22;;;;;;;3.00;1.60;;;;;;;;;;5019274;28;20033;-77
2021/03/09 11:48:47;;;;;;;3.37;1.77;;;;;;;;;;5019771;28;20515;-76
2021/03/09 11:51:14;;;;;;;2.83;1.57;;;;;;;;;;5036331;28;20064;-76
2021/03/09 11:53:40;;;;;;;2.55;1.40;;;;;;;;;;5035863;28;20043;-76
2021/03/09 11:56:05;;;;;;;2.93;1.40;;;;;;;;;;4999815;28;20480;-76
2021/03/09 11:58:31;;;;;;;4.17;1.80;;;;;;;;;;5033182;28;20112;-76
2021/03/09 12:00:56;;;;;;;5.03;2.00;;;;;;;;;;5000019;28;20040;-76
2021/03/09 12:03:22;;;;;;;3.63;1.60;;;;;;;;;;5032721;28;20061;-76
2021/03/09 12:05:47;;;;;;;2.60;1.40;;;;;;;;;;5032875;28;20083;-76
2021/03/09 12:08:13;;;;;;;2.47;1.53;;;;;;;;;;5016203;28;20718;-76
2021/03/09 12:10:38;;;;;;;3.00;1.80;;;;;;;;;;5032725;28;20057;-76
2021/03/09 12:13:03;;;;;;;3.20;1.67;;;;;;;;;;5014558;28;20033;-76
2021/03/09 12:15:29;;;;;;;3.03;1.70;;;;;;;;;;5016087;28;20124;-76
2021/03/09 12:17:55;;;;;;;3.03;1.57;;;;;;;;;;5016124;28;20069;-75
2021/03/09 12:20:20;;;;;;;3.22;1.58;;;;;;;;;;4999412;28;20120;-76
2021/03/09 12:22:46;;;;;;;3.63;1.70;;;;;;;;;;5033614;28;20162;-76
2021/03/09 12:25:11;;;;;;;3.27;1.60;;;;;;;;;;4999657;28;20087;-75
2021/03/09 12:27:37;;;;;;;2.87;1.57;;;;;;;;;;5015887;28;20025;-75
2021/03/09 12:30:04;;;;;;;3.33;1.70;;;;;;;;;;5033263;28;20550;-75
2021/03/09 12:32:30;;;;;;;3.67;1.90;;;;;;;;;;5016025;28;20120;-75
2021/03/09 12:34:55;;;;;;;3.33;1.60;;;;;;;;;;4999410;28;20087;-76
2021/03/09 12:37:20;;;;;;;2.80;1.50;;;;;;;;;;4999369;28;20056;-76
2021/03/09 12:39:46;;;;;;;3.30;1.60;;;;;;;;;;5015618;28;20124;-76
2021/03/09 12:42:11;;;;;;;2.87;1.60;;;;;;;;;;5033378;28;20075;-76
2021/03/09 12:44:36;;;;;;;3.90;1.50;;;;;;;;;;5015627;28;20053;-76
2021/03/09 12:47:02;;;;;;;4.97;1.83;;;;;;;;;;5015756;28;20048;-76
2021/03/09 12:49:27;;;;;;;3.87;1.77;;;;;;;;;;5015538;28;20037;-76
2021/03/09 12:51:52;;;;;;;2.93;1.63;;;;;;;;;;5015416;28;20488;-76
2021/03/09 12:54:18;;;;;;;2.83;1.60;;;;;;;;;;5015715;28;20045;-76
2021/03/09 12:56:43;;;;;;;2.80;1.67;;;;;;;;;;5015579;28;20403;-77
2021/03/09 12:59:08;;;;;;;3.97;1.70;;;;;;;;;;5015546;28;20136;-77
2021/03/09 13:01:34;;;;;;;3.37;1.63;;;;;;;;;;5015338;28;20471;-76
2021/03/09 13:03:59;;;;;;;4.67;1.90;;;;;;;;;;4999170;28;20060;-77
2021/03/09 13:06:25;;;;;;;3.47;1.67;;;;;;;;;;5032528;28;20488;-76
2021/03/09 13:08:50;;;;;;;3.13;1.60;;;;;;;;;;4999008;28;20044;-76
2021/03/09 13:11:16;;;;;;;3.47;1.73;;;;;;;;;;5015288;28;20029;-76
2021/03/09 13:13:41;;;;;;;4.40;1.67;;;;;;;;;;4982765;28;20033;-76
2021/03/09 13:16:06;;;;;;;2.97;1.70;;;;;;;;;;5015130;28;20065;-76
2021/03/09 13:18:32;;;;;;;2.80;1.63;;;;;;;;;;4982671;28;20120;-76
2021/03/09 13:20:57;;;;;;;3.50;1.77;;;;;;;;;;4998903;28;20108;-76
2021/03/09 13:23:22;;;;;;;2.87;1.50;;;;;;;;;;5015112;28;20049;-76
2021/03/09 13:25:48;;;;;;;4.27;1.83;;;;;;;;;;4999181;28;20480;-76
2021/03/09 13:28:13;;;;;;;3.23;1.80;;;;;;;;;;4998981;28;20526;-77
2021/03/09 13:30:38;;;;;;;3.93;1.70;;;;;;;;;;4999104;28;20040;-76
2021/03/09 13:33:04;;;;;;;3.33;1.53;;;;;;;;;;4998904;28;20049;-77
2021/03/09 13:35:30;;;;;;;2.47;1.40;;;;;;;;;;4998902;28;20499;-76
2021/03/09 13:37:55;;;;;;;3.10;1.67;;;;;;;;;;5015132;28;20107;-76
2021/03/09 13:40:20;;;;;;;3.83;1.70;;;;;;;;;;4982573;28;20133;-76
2021/03/09 13:42:46;;;;;;;3.30;1.40;;;;;;;;;;4998896;28;20033;-76
2021/03/09 13:45:13;;;;;;;2.87;1.53;;;;;;;;;;4998681;28;20410;-76
2021/03/09 13:47:38;;;;;;;3.40;1.80;;;;;;;;;;4998749;28;20025;-76
2021/03/09 13:50:05;;;;;;;3.10;1.50;;;;;;;;;;4998871;28;20039;-76
2021/03/09 13:52:32;;;;;;;3.42;1.67;;;;;;;;;;4982517;28;20393;-76
2021/03/09 13:54:57;;;;;;;4.20;1.77;;;;;;;;;;5004379;28;20037;-76
2021/03/09 13:57:23;;;;;;;4.80;1.60;;;;;;;;;;5034542;28;20114;-76
2021/03/09 13:59:48;;;;;;;4.10;1.70;;;;;;;;;;5018157;28;20140;-76
2021/03/09 14:02:13;;;;;;;2.97;1.63;;;;;;;;;;5034539;28;20043;-76
2021/03/09 14:04:43;;;;;;;3.07;1.53;;;;;;;;;;5018022;28;20063;-76
2021/03/09 14:07:11;;;;;;;3.88;1.75;;;;;;;;;;5002641;28;20511;-76
2021/03/09 14:09:37;;;;;;;3.05;1.52;;;;;;;;;;5018061;28;20037;-76
2021/03/09 14:12:02;;;;;;;2.77;1.57;;;;;;;;;;5034525;28;20074;-76
2021/03/09 14:14:29;;;;;;;4.70;1.93;;;;;;;;;;5034895;28;20040;-76
2021/03/09 14:16:54;;;;;;;3.67;1.80;;;;;;;;;;5018474;28;20128;-76
2021/03/09 14:19:19;;;;;;;3.83;2.07;;;;;;;;;;5037336;28;20116;-75
2021/03/09 14:21:45;;;;;;;5.07;1.63;;;;;;;;;;5021211;28;20064;-76
2021/03/09 14:24:10;;;;;;;2.90;1.47;;;;;;;;;;5035859;28;20076;-75
2021/03/09 14:26:36;;;;;;;4.33;1.70;;;;;;;;;;5037826;28;20029;-75
2021/03/09 14:29:01;;;;;;;5.60;1.80;;;;;;;;;;5056139;28;20553;-76
2021/03/09 14:31:26;;;;;;;3.10;1.70;;;;;;;;;;5055626;28;20033;-76
2021/03/09 14:33:52;;;;;;;2.87;1.47;;;;;;;;;;5037898;28;20033;-75
2021/03/09 14:36:18;;;;;;;3.63;1.90;;;;;;;;;;5021253;28;20108;-75
2021/03/09 14:38:43;;;;;;;3.80;1.57;;;;;;;;;;5037887;28;20039;-76
2021/03/09 14:41:09;;;;;;;4.13;2.00;;;;;;;;;;5021551;28;20048;-75
2021/03/09 14:43:34;;;;;;;3.57;1.73;;;;;;;;;;5055691;28;20111;-75
2021/03/09 14:45:59;;;;;;;4.47;1.80;;;;;;;;;;5055340;28;20483;-76
2021/03/09 14:48:25;;;;;;;3.37;1.57;;;;;;;;;;5055610;28;20083;-76